createdAt,value
2019-02-23T00:01:03.070Z,87.73
2019-02-23T00:03:32.407Z,87.74
2019-02-23T00:06:01.753Z,87.01
2019-02-23T00:08:31.140Z,86.72
2019-02-23T00:11:00.583Z,86.20
2019-02-23T00:13:29.907Z,86.30
2019-02-23T00:15:59.261Z,86.09
2019-02-23T00:18:28.608Z,85.41
2019-02-23T00:20:57.961Z,85.39
2019-02-23T00:23:27.339Z,84.61
2019-02-23T00:25:56.697Z,83.84
2019-02-23T00:28:26.020Z,84.14
2019-02-23T00:30:55.386Z,83.95
2019-02-23T00:33:24.713Z,83.96
2019-02-23T00:35:54.046Z,83.15
2019-02-23T00:38:23.397Z,83.28
2019-02-23T00:40:52.745Z,83.02
2019-02-23T00:43:22.109Z,83.24
2019-02-23T00:45:51.482Z,82.68
2019-02-23T00:48:20.831Z,81.71
2019-02-23T00:50:50.173Z,80.72
2019-02-23T00:53:19.557Z,79.64
2019-02-23T00:55:48.951Z,79.93
2019-02-23T00:58:18.320Z,79.82
2019-02-23T01:00:47.675Z,79.54
2019-02-23T01:03:17.037Z,79.68
2019-02-23T01:05:46.331Z,80.56
2019-02-23T01:08:17.173Z,79.49
2019-02-23T01:10:57.495Z,78.90
2019-02-23T01:13:17.853Z,78.99
2019-02-23T01:15:47.247Z,78.30
2019-02-23T01:18:16.654Z,78.22
2019-02-23T01:20:46.008Z,77.81
2019-02-23T01:23:16.817Z,77.77
2019-02-23T01:25:46.242Z,78.78
2019-02-23T01:28:15.565Z,80.05
2019-02-23T01:30:44.915Z,81.31
2019-02-23T01:33:14.297Z,81.89
2019-02-23T01:35:43.605Z,82.37
2019-02-23T01:38:12.971Z,82.59
2019-02-23T01:40:42.330Z,83.13
2019-02-23T01:43:11.685Z,83.40
2019-02-23T01:45:42.605Z,83.55
2019-02-23T01:48:12.124Z,84.17
2019-02-23T01:50:41.515Z,84.74
2019-02-23T01:53:10.836Z,85.22
2019-02-23T01:55:40.183Z,85.66
2019-02-23T01:58:09.530Z,86.33
2019-02-23T02:00:40.285Z,87.05
2019-02-23T02:03:09.841Z,87.77
2019-02-23T02:05:39.391Z,88.29
2019-02-23T02:08:08.807Z,88.76
2019-02-23T02:10:39.112Z,89.32
2019-02-23T02:13:08.484Z,88.88
2019-02-23T02:15:37.821Z,88.81
2019-02-23T02:18:07.264Z,88.64
2019-02-23T02:20:36.631Z,88.63
2019-02-23T02:23:05.966Z,87.57
2019-02-23T02:25:35.268Z,87.72
2019-02-23T02:28:04.590Z,87.88
2019-02-23T02:30:33.918Z,87.17
2019-02-23T02:33:03.277Z,87.35
2019-02-23T02:35:32.624Z,87.56
2019-02-23T02:38:02.006Z,87.93
2019-02-23T02:40:31.325Z,87.73
2019-02-23T02:43:00.674Z,87.78
2019-02-23T02:45:30.090Z,88.31
2019-02-23T02:47:59.413Z,89.10
2019-02-23T02:50:28.753Z,88.94
2019-02-23T02:52:58.079Z,87.10
2019-02-23T02:55:27.473Z,87.41
2019-02-23T02:57:56.802Z,88.02
2019-02-23T03:00:25.943Z,88.63
2019-02-23T03:02:55.285Z,88.03
2019-02-23T03:05:24.710Z,87.71
2019-02-23T03:07:54.055Z,87.42
2019-02-23T03:10:23.409Z,86.75
2019-02-23T03:12:52.791Z,86.47
2019-02-23T03:15:22.570Z,86.67
2019-02-23T03:17:51.902Z,86.06
2019-02-23T03:20:21.268Z,86.24
2019-02-23T03:22:50.620Z,86.98
2019-02-23T03:25:19.974Z,87.05
2019-02-23T03:27:49.317Z,86.77
2019-02-23T03:30:18.701Z,85.36
2019-02-23T03:32:48.251Z,85.47
2019-02-23T03:35:17.622Z,84.65
2019-02-23T03:37:46.964Z,84.46
2019-02-23T03:40:16.308Z,84.60
2019-02-23T03:42:45.674Z,85.36
2019-02-23T03:45:15.086Z,84.73
2019-02-23T03:47:44.468Z,84.83
2019-02-23T03:50:13.810Z,84.40
2019-02-23T03:52:43.237Z,83.96
2019-02-23T03:55:12.792Z,83.49
2019-02-23T03:57:42.103Z,82.64
2019-02-23T04:00:11.420Z,83.07
2019-02-23T04:02:40.765Z,83.52
2019-02-23T04:05:10.083Z,84.09
2019-02-23T04:07:39.443Z,83.78
2019-02-23T04:10:09.046Z,84.73
2019-02-23T04:12:38.369Z,85.15
2019-02-23T04:15:08.133Z,85.94
2019-02-23T04:17:37.478Z,86.80
2019-02-23T04:20:07.055Z,87.68
2019-02-23T04:22:36.384Z,88.59
2019-02-23T04:25:05.872Z,89.79
2019-02-23T04:27:35.231Z,90.60
2019-02-23T04:30:04.773Z,91.11
2019-02-23T04:32:34.122Z,91.68
2019-02-23T04:35:03.452Z,92.16
2019-02-23T04:37:32.783Z,92.40
2019-02-23T04:40:02.116Z,92.64
2019-02-23T04:42:31.467Z,92.72
2019-02-23T04:45:00.841Z,92.84
2019-02-23T04:47:30.203Z,92.84
2019-02-23T04:49:59.553Z,92.44
2019-02-23T04:52:28.929Z,92.42
2019-02-23T04:54:58.337Z,92.35
2019-02-23T04:57:27.692Z,92.25
2019-02-23T04:59:57.039Z,91.93
2019-02-23T05:02:26.363Z,91.54
2019-02-23T05:04:55.680Z,91.00
2019-02-23T05:07:25.116Z,90.17
2019-02-23T05:09:54.481Z,89.22
2019-02-23T05:12:23.854Z,88.16
2019-02-23T05:14:53.257Z,87.62
2019-02-23T05:17:22.634Z,88.43
2019-02-23T05:19:52.359Z,88.17
2019-02-23T05:22:21.701Z,86.61
2019-02-23T05:24:53.404Z,86.15
2019-02-23T05:27:22.175Z,85.86
2019-02-23T05:29:51.480Z,85.24
2019-02-23T05:32:20.810Z,83.79
2019-02-23T05:34:50.169Z,81.78
2019-02-23T05:37:19.873Z,80.03
2019-02-23T05:39:49.294Z,77.89
2019-02-23T05:42:18.714Z,76.02
2019-02-23T05:44:48.088Z,76.13
2019-02-23T05:47:17.583Z,76.10
2019-02-23T05:49:47.004Z,75.72
2019-02-23T05:52:16.418Z,75.27
2019-02-23T05:54:45.778Z,75.07
2019-02-23T05:57:15.218Z,74.16
2019-02-23T05:59:44.791Z,72.72
2019-02-23T06:02:14.204Z,72.94
2019-02-23T06:04:43.655Z,73.11
2019-02-23T06:07:13.110Z,72.38
2019-02-23T06:09:42.458Z,72.26
2019-02-23T06:12:11.982Z,71.98
2019-02-23T06:14:41.442Z,71.75
2019-02-23T06:17:10.796Z,72.24
2019-02-23T06:19:40.282Z,71.54
2019-02-23T06:22:09.625Z,72.20
2019-02-23T06:24:38.957Z,71.58
2019-02-23T06:27:08.678Z,72.12
2019-02-23T06:29:38.035Z,71.00
2019-02-23T06:32:07.406Z,71.23
2019-02-23T06:34:37.480Z,71.48
2019-02-23T06:37:06.945Z,70.98
2019-02-23T06:39:36.787Z,70.28
2019-02-23T06:42:06.122Z,70.55
2019-02-23T06:44:35.841Z,70.49
2019-02-23T06:47:05.275Z,69.63
2019-02-23T06:49:34.678Z,69.30
2019-02-23T06:52:04.938Z,69.52
2019-02-23T06:54:34.340Z,69.06
2019-02-23T06:57:03.733Z,68.48
2019-02-23T06:59:33.174Z,67.91
2019-02-23T07:02:02.542Z,68.30
2019-02-23T07:04:32.019Z,68.92
2019-02-23T07:07:01.340Z,69.03
2019-02-23T07:09:30.691Z,67.48
2019-02-23T07:12:00.566Z,67.68
2019-02-23T07:14:30.185Z,67.05
2019-02-23T07:16:59.917Z,67.86
2019-02-23T07:19:29.338Z,68.03
2019-02-23T07:21:58.695Z,66.07
2019-02-23T07:24:28.042Z,66.07
2019-02-23T07:26:57.406Z,66.40
2019-02-23T07:29:26.804Z,65.58
2019-02-23T07:31:56.137Z,65.78
2019-02-23T07:34:25.477Z,65.29
2019-02-23T07:36:54.822Z,65.59
2019-02-23T07:39:24.495Z,65.60
2019-02-23T07:41:54.910Z,64.01
2019-02-23T07:44:25.328Z,63.90
2019-02-23T07:46:54.738Z,64.28
2019-02-23T07:49:24.069Z,63.25
2019-02-23T07:51:53.433Z,63.68
2019-02-23T07:54:22.822Z,63.59
2019-02-23T07:56:52.151Z,63.91
2019-02-23T07:59:21.543Z,63.75
2019-02-23T08:01:50.890Z,63.08
2019-02-23T08:04:20.233Z,64.02
2019-02-23T08:06:49.574Z,64.69
2019-02-23T08:09:19.014Z,64.17
2019-02-23T08:11:48.381Z,64.35
2019-02-23T08:14:17.672Z,62.50
2019-02-23T08:16:47.025Z,61.43
2019-02-23T08:19:16.354Z,59.41
2019-02-23T08:21:45.731Z,58.21
2019-02-23T08:24:15.239Z,56.65
2019-02-23T08:26:44.600Z,57.42
2019-02-23T08:29:13.915Z,56.27
2019-02-23T08:31:43.294Z,56.33
2019-02-23T08:34:12.617Z,57.19
2019-02-23T08:36:41.976Z,56.27
2019-02-23T08:39:11.300Z,56.33
2019-02-23T08:41:43.249Z,54.76
2019-02-23T08:44:11.769Z,56.50
2019-02-23T08:46:41.176Z,57.20
2019-02-23T08:49:10.562Z,57.50
2019-02-23T08:51:40.256Z,57.75
2019-02-23T08:54:09.666Z,57.65
2019-02-23T08:56:39.053Z,56.79
2019-02-23T08:59:08.388Z,54.28
2019-02-23T09:01:37.722Z,53.22
2019-02-23T09:04:07.074Z,54.44
2019-02-23T09:06:36.424Z,56.32
2019-02-23T09:09:08.189Z,56.86
2019-02-23T09:11:37.684Z,58.69
2019-02-23T09:14:07.138Z,56.36
2019-02-23T09:16:36.552Z,55.65
2019-02-23T09:19:05.897Z,55.68
2019-02-23T09:21:35.244Z,56.76
2019-02-23T09:24:04.595Z,55.35
2019-02-23T09:26:34.266Z,55.46
2019-02-23T09:29:03.623Z,55.71
2019-02-23T09:31:33.040Z,55.42
2019-02-23T09:34:03.254Z,54.39
2019-02-23T09:36:32.796Z,54.62
2019-02-23T09:39:02.546Z,55.94
2019-02-23T09:41:32.395Z,54.80
2019-02-23T09:44:02.026Z,55.61
2019-02-23T09:46:31.733Z,55.35
2019-02-23T09:49:03.806Z,55.10
2019-02-23T09:51:33.462Z,55.54
2019-02-23T09:54:02.823Z,55.73
2019-02-23T09:56:32.208Z,53.49
2019-02-23T09:59:01.537Z,54.78
2019-02-23T10:01:30.904Z,54.38
2019-02-23T10:04:00.258Z,55.27
2019-02-23T10:06:29.608Z,55.97
2019-02-23T10:08:58.987Z,55.42
2019-02-23T10:11:28.404Z,53.81
2019-02-23T10:13:57.786Z,53.27
2019-02-23T10:16:27.301Z,54.36
2019-02-23T10:18:56.648Z,54.87
2019-02-23T10:21:27.502Z,53.72
2019-02-23T10:23:57.051Z,52.70
2019-02-23T10:26:26.501Z,52.31
2019-02-23T10:28:56.021Z,52.31
2019-02-23T10:31:25.424Z,52.77
2019-02-23T10:33:54.864Z,50.86
2019-02-23T10:36:24.196Z,50.86
2019-02-23T10:39:07.535Z,50.84
2019-02-23T10:41:37.165Z,51.03
2019-02-23T10:44:06.748Z,51.03
2019-02-23T10:46:36.351Z,48.71
2019-02-23T10:49:05.725Z,49.31
2019-02-23T10:51:35.346Z,51.48
2019-02-23T10:54:04.793Z,50.76
2019-02-23T10:56:34.901Z,47.84
2019-02-23T10:59:04.281Z,47.56
2019-02-23T11:01:33.669Z,47.29
2019-02-23T11:04:03.078Z,48.09
2019-02-23T11:06:32.492Z,47.07
2019-02-23T11:09:01.886Z,48.80
2019-02-23T11:11:31.240Z,49.57
2019-02-23T11:14:06.500Z,50.27
2019-02-23T11:16:54.421Z,50.44
2019-02-23T11:19:24.073Z,46.86
2019-02-23T11:21:53.677Z,48.37
2019-02-23T11:24:23.050Z,47.59
2019-02-23T11:26:52.450Z,47.43
2019-02-23T11:29:22.150Z,46.20
2019-02-23T11:31:53.681Z,43.67
2019-02-23T11:34:23.059Z,46.79
2019-02-23T11:36:54.122Z,46.79
2019-02-23T11:39:23.493Z,46.89
2019-02-23T11:41:55.779Z,47.24
2019-02-23T11:44:25.123Z,47.24
2019-02-23T11:47:01.508Z,45.03
2019-02-23T11:49:25.602Z,45.03
2019-02-23T11:51:54.924Z,44.68
2019-02-23T11:54:24.313Z,43.87
2019-02-23T11:56:53.658Z,45.96
2019-02-23T11:59:23.006Z,46.41
2019-02-23T12:01:52.680Z,45.87
2019-02-23T12:04:22.098Z,44.36
2019-02-23T12:06:51.408Z,45.04
2019-02-23T12:09:21.005Z,45.04
2019-02-23T12:11:50.431Z,45.12
2019-02-23T12:14:19.748Z,45.01
2019-02-23T12:16:49.106Z,46.29
2019-02-23T12:19:18.483Z,45.42
2019-02-23T12:21:48.931Z,46.06
2019-02-23T12:24:18.472Z,45.10
2019-02-23T12:26:48.097Z,45.42
2019-02-23T12:29:17.492Z,44.36
2019-02-23T12:31:46.810Z,44.65
2019-02-23T12:34:16.116Z,43.95
2019-02-23T12:36:45.451Z,44.67
2019-02-23T12:39:14.787Z,44.12
2019-02-23T12:41:44.139Z,44.74
2019-02-23T12:44:13.501Z,45.56
2019-02-23T12:46:42.853Z,44.57
2019-02-23T12:49:12.253Z,43.50
2019-02-23T12:51:41.636Z,47.00
2019-02-23T12:54:16.845Z,46.14
2019-02-23T12:56:42.156Z,46.68
2019-02-23T12:59:11.543Z,46.68
2019-02-23T13:01:41.377Z,48.15
2019-02-23T13:04:10.977Z,48.91
2019-02-23T13:06:40.373Z,48.86
2019-02-23T13:09:35.991Z,48.86
2019-02-23T13:12:19.444Z,46.80
2019-02-23T13:15:18.277Z,46.97
2019-02-23T13:18:40.578Z,47.12
2019-02-23T13:21:35.752Z,48.13
2019-02-23T13:24:33.279Z,46.26
2019-02-23T13:27:43.150Z,48.44
2019-02-23T13:30:33.982Z,49.21
2019-02-23T13:33:53.333Z,50.43
2019-02-23T13:36:31.860Z,47.75
2019-02-23T13:39:53.305Z,49.23
2019-02-23T13:43:10.225Z,49.94
2019-02-23T13:45:59.448Z,48.75
2019-02-23T13:49:24.080Z,47.63
2019-02-23T13:52:27.748Z,47.80
2019-02-23T13:55:35.154Z,50.08
2019-02-23T13:58:50.324Z,50.47
2019-02-23T14:01:45.889Z,51.44
2019-02-23T14:04:56.536Z,51.90
2019-02-23T14:08:02.448Z,50.80
2019-02-23T14:10:51.046Z,51.63
2019-02-23T14:14:03.851Z,51.62
2019-02-23T14:17:07.425Z,50.78
2019-02-23T14:20:02.555Z,50.65
2019-02-23T14:23:08.666Z,51.34
2019-02-23T14:26:10.394Z,52.15
2019-02-23T14:28:52.961Z,52.42
2019-02-23T14:31:57.119Z,52.16
2019-02-23T14:35:05.091Z,52.21
2019-02-23T14:38:10.461Z,52.51
2019-02-23T14:41:01.405Z,53.22
2019-02-23T14:44:20.672Z,53.03
2019-02-23T14:47:29.793Z,53.55
2019-02-23T14:50:32.445Z,53.34
2019-02-23T14:53:37.397Z,53.79
2019-02-23T14:56:43.617Z,53.29
2019-02-23T14:59:35.590Z,53.70
2019-02-23T15:02:31.740Z,53.59
2019-02-23T15:05:41.366Z,53.84
2019-02-23T15:08:44.691Z,53.65
2019-02-23T15:11:33.729Z,54.17
2019-02-23T15:14:43.745Z,54.26
2019-02-23T15:17:38.692Z,54.30
2019-02-23T15:20:37.295Z,54.22
2019-02-23T15:23:28.650Z,55.04
2019-02-23T15:26:55.767Z,55.76
2019-02-23T15:29:50.436Z,55.65
2019-02-23T15:32:59.682Z,55.80
2019-02-23T15:36:11.709Z,55.83
2019-02-23T15:39:36.947Z,56.12
2019-02-23T15:42:46.919Z,56.85
2019-02-23T15:45:47.935Z,56.25
2019-02-23T15:49:25.464Z,56.60
2019-02-23T15:51:54.951Z,56.02
2019-02-23T15:54:24.783Z,56.53
2019-02-23T15:56:54.297Z,56.49
2019-02-23T15:59:23.772Z,56.90
2019-02-23T16:01:53.296Z,57.20
2019-02-23T16:04:22.988Z,57.05
2019-02-23T16:06:52.328Z,57.14
2019-02-23T16:09:21.724Z,56.98
2019-02-23T16:11:51.067Z,57.08
2019-02-23T16:14:20.457Z,56.98
2019-02-23T16:16:49.941Z,57.06
2019-02-23T16:19:19.458Z,57.53
2019-02-23T16:21:48.963Z,57.27
2019-02-23T16:24:18.415Z,57.48
2019-02-23T16:26:47.781Z,57.25
2019-02-23T16:29:19.856Z,57.76
2019-02-23T16:31:49.520Z,58.35
2019-02-23T16:34:19.036Z,58.03
2019-02-23T16:36:51.220Z,57.59
2019-02-23T16:39:20.545Z,57.04
2019-02-23T16:41:49.939Z,57.22
2019-02-23T16:44:19.306Z,56.82
2019-02-23T16:46:48.653Z,56.79
2019-02-23T16:49:18.105Z,57.35
2019-02-23T16:51:47.466Z,57.31
2019-02-23T16:54:16.813Z,57.23
2019-02-23T16:56:46.307Z,56.80
2019-02-23T16:59:15.684Z,56.85
2019-02-23T17:01:45.026Z,57.15
2019-02-23T17:04:14.424Z,56.98
2019-02-23T17:06:43.780Z,56.84
2019-02-23T17:09:13.151Z,56.33
2019-02-23T17:11:42.563Z,56.88
2019-02-23T17:14:11.912Z,57.14
2019-02-23T17:16:41.292Z,57.27
2019-02-23T17:19:10.681Z,56.97
2019-02-23T17:21:40.065Z,57.48
2019-02-23T17:24:09.425Z,57.74
2019-02-23T17:26:38.768Z,57.87
2019-02-23T17:29:08.082Z,57.49
2019-02-23T17:31:37.406Z,58.03
2019-02-23T17:34:07.878Z,57.33
2019-02-23T17:36:37.256Z,57.30
2019-02-23T17:39:07.046Z,57.99
2019-02-23T17:41:36.369Z,58.53
2019-02-23T17:44:06.227Z,58.43
2019-02-23T17:46:35.666Z,58.56
2019-02-23T17:49:04.976Z,59.32
2019-02-23T17:51:34.358Z,59.59
2019-02-23T17:54:03.674Z,59.58
2019-02-23T17:56:33.041Z,59.63
2019-02-23T17:59:02.369Z,60.22
2019-02-23T18:01:31.751Z,60.57
2019-02-23T18:04:01.077Z,60.68
2019-02-23T18:06:31.041Z,61.05
2019-02-23T18:09:01.277Z,61.19
2019-02-23T18:11:30.639Z,61.38
2019-02-23T18:14:01.042Z,61.35
2019-02-23T18:16:30.410Z,61.55
2019-02-23T18:18:59.757Z,61.53
2019-02-23T18:21:29.140Z,61.57
2019-02-23T18:23:58.489Z,61.41
2019-02-23T18:26:27.830Z,61.35
2019-02-23T18:28:57.264Z,61.27
2019-02-23T18:31:26.614Z,61.60
2019-02-23T18:33:56.001Z,61.97
2019-02-23T18:36:26.043Z,62.04
2019-02-23T18:38:57.470Z,62.22
2019-02-23T18:41:26.890Z,61.83
2019-02-23T18:43:56.245Z,62.05
2019-02-23T18:46:26.093Z,62.09
2019-02-23T18:48:55.458Z,61.49
2019-02-23T18:51:25.181Z,61.52
2019-02-23T18:53:55.085Z,61.65
2019-02-23T18:56:29.619Z,60.51
2019-02-23T18:58:58.207Z,60.50
2019-02-23T19:01:27.918Z,61.22
2019-02-23T19:03:57.346Z,60.66
2019-02-23T19:06:27.961Z,60.95
2019-02-23T19:08:57.771Z,61.14
2019-02-23T19:11:27.167Z,61.02
2019-02-23T19:13:56.525Z,60.47
2019-02-23T19:16:25.889Z,60.99
2019-02-23T19:18:58.330Z,60.65
2019-02-23T19:21:27.685Z,60.53
2019-02-23T19:23:57.054Z,60.60
2019-02-23T19:26:26.408Z,60.98
2019-02-23T19:28:55.817Z,60.77
2019-02-23T19:31:25.171Z,60.89
2019-02-23T19:33:54.524Z,61.17
2019-02-23T19:36:23.874Z,61.19
2019-02-23T19:38:53.183Z,61.04
2019-02-23T19:41:23.572Z,61.02
2019-02-23T19:43:52.976Z,61.14
2019-02-23T19:46:22.719Z,60.73
2019-02-23T19:48:52.104Z,61.07
2019-02-23T19:51:21.500Z,61.01
2019-02-23T19:53:53.926Z,61.19
2019-02-23T19:56:23.322Z,61.33
2019-02-23T19:58:52.741Z,61.56
2019-02-23T20:01:23.421Z,61.50
2019-02-23T20:03:52.823Z,61.64
2019-02-23T20:06:22.175Z,62.06
2019-02-23T20:08:51.489Z,62.06
2019-02-23T20:11:20.845Z,62.34
2019-02-23T20:13:50.187Z,62.46
2019-02-23T20:16:19.554Z,62.42
2019-02-23T20:18:49.063Z,62.59
2019-02-23T20:21:18.429Z,62.58
2019-02-23T20:23:48.160Z,62.45
2019-02-23T20:26:17.543Z,62.40
2019-02-23T20:28:46.980Z,62.72
2019-02-23T20:31:16.652Z,62.72
2019-02-23T20:33:45.983Z,62.89
2019-02-23T20:36:15.387Z,63.12
2019-02-23T20:38:44.739Z,63.12
2019-02-23T20:41:14.114Z,63.07
2019-02-23T20:43:45.059Z,62.86
2019-02-23T20:46:14.452Z,63.01
2019-02-23T20:48:44.016Z,62.99
2019-02-23T20:51:13.848Z,63.04
2019-02-23T20:53:43.187Z,63.15
2019-02-23T20:56:12.639Z,63.22
2019-02-23T20:58:43.429Z,63.14
2019-02-23T21:01:12.912Z,63.04
2019-02-23T21:03:42.245Z,63.20
2019-02-23T21:06:11.839Z,63.23
2019-02-23T21:08:41.305Z,63.16
2019-02-23T21:11:10.702Z,63.45
2019-02-23T21:13:40.140Z,63.61
2019-02-23T21:16:09.634Z,63.37
2019-02-23T21:18:39.102Z,63.44
2019-02-23T21:21:08.485Z,63.72
2019-02-23T21:23:37.797Z,63.69
2019-02-23T21:26:07.152Z,63.76
2019-02-23T21:28:36.451Z,63.59
2019-02-23T21:31:05.781Z,63.54
2019-02-23T21:33:35.162Z,63.79
2019-02-23T21:36:04.479Z,63.55
2019-02-23T21:38:33.907Z,63.54
2019-02-23T21:41:03.242Z,63.55
2019-02-23T21:43:32.599Z,63.95
2019-02-23T21:46:01.973Z,63.74
2019-02-23T21:48:31.290Z,63.77
2019-02-23T21:51:00.614Z,63.60
2019-02-23T21:53:29.955Z,63.61
2019-02-23T21:55:59.301Z,63.70
2019-02-23T21:58:28.616Z,63.69
2019-02-23T22:00:57.929Z,63.78
2019-02-23T22:03:27.357Z,63.83
2019-02-23T22:05:56.701Z,63.82
2019-02-23T22:08:26.090Z,64.00
2019-02-23T22:10:55.456Z,63.92
2019-02-23T22:13:24.821Z,64.15
2019-02-23T22:15:54.162Z,63.65
2019-02-23T22:18:23.495Z,64.01
2019-02-23T22:20:52.814Z,64.32
2019-02-23T22:23:22.164Z,64.02
2019-02-23T22:25:51.489Z,64.08
2019-02-23T22:28:20.860Z,64.06
2019-02-23T22:30:50.200Z,64.31
2019-02-23T22:33:19.560Z,64.43
2019-02-23T22:35:48.911Z,64.55
2019-02-23T22:38:18.247Z,64.55
2019-02-23T22:40:47.591Z,64.73
2019-02-23T22:43:17.322Z,64.74
2019-02-23T22:45:46.760Z,64.67
2019-02-23T22:48:16.097Z,64.79
2019-02-23T22:50:45.448Z,64.97
2019-02-23T22:53:14.787Z,65.12
2019-02-23T22:55:44.122Z,64.74
2019-02-23T22:58:13.491Z,64.68
2019-02-23T23:00:56.877Z,64.63
2019-02-23T23:03:26.367Z,64.78
2019-02-23T23:05:55.759Z,65.16
2019-02-23T23:08:25.094Z,65.31
2019-02-23T23:10:54.569Z,64.90
2019-02-23T23:13:23.887Z,65.21
2019-02-23T23:15:53.246Z,65.35
2019-02-23T23:18:22.573Z,65.57
2019-02-23T23:20:51.915Z,65.45
2019-02-23T23:23:21.276Z,65.33
2019-02-23T23:25:50.612Z,65.16
2019-02-23T23:28:19.971Z,64.97
2019-02-23T23:30:49.313Z,65.13
2019-02-23T23:33:18.666Z,65.31
2019-02-23T23:35:48.054Z,65.24
2019-02-23T23:38:17.485Z,65.32
2019-02-23T23:40:46.833Z,65.65
2019-02-23T23:43:16.186Z,65.52
2019-02-23T23:45:45.493Z,65.93
2019-02-23T23:48:14.875Z,66.25
2019-02-23T23:50:44.302Z,66.59
2019-02-23T23:53:13.663Z,66.91
2019-02-23T23:55:43.047Z,66.97
2019-02-23T23:58:12.416Z,67.38
